sensor_id;sensor_type;location;lat;lon;timestamp;P1;durP1;ratioP1;P2;durP2;ratioP2
13291;SDS011;6714;53.056;8.690;2023-04-06T00:01:31;5.50;;;5.00;;
13291;SDS011;6714;53.056;8.690;2023-04-06T00:04:14;6.00;;;5.40;;
13291;SDS011;6714;53.056;8.690;2023-04-06T00:06:56;6.13;;;5.03;;
13291;SDS011;6714;53.056;8.690;2023-04-06T00:09:39;7.07;;;5.50;;
13291;SDS011;6714;53.056;8.690;2023-04-06T00:12:21;7.07;;;6.37;;
13291;SDS011;6714;53.056;8.690;2023-04-06T00:15:03;7.60;;;6.37;;
13291;SDS011;6714;53.056;8.690;2023-04-06T00:17:46;6.67;;;5.47;;
13291;SDS011;6714;53.056;8.690;2023-04-06T00:20:30;7.33;;;6.20;;
13291;SDS011;6714;53.056;8.690;2023-04-06T00:23:12;7.17;;;5.20;;
13291;SDS011;6714;53.056;8.690;2023-04-06T00:25:54;7.33;;;6.10;;
13291;SDS011;6714;53.056;8.690;2023-04-06T00:28:36;6.87;;;6.07;;
13291;SDS011;6714;53.056;8.690;2023-04-06T00:31:19;7.73;;;6.20;;
13291;SDS011;6714;53.056;8.690;2023-04-06T00:34:01;8.30;;;6.60;;
13291;SDS011;6714;53.056;8.690;2023-04-06T00:36:45;6.70;;;5.53;;
13291;SDS011;6714;53.056;8.690;2023-04-06T00:39:27;5.77;;;5.17;;
13291;SDS011;6714;53.056;8.690;2023-04-06T00:42:10;5.50;;;5.00;;
13291;SDS011;6714;53.056;8.690;2023-04-06T00:44:53;7.03;;;5.83;;
13291;SDS011;6714;53.056;8.690;2023-04-06T00:47:36;7.20;;;6.50;;
13291;SDS011;6714;53.056;8.690;2023-04-06T00:50:18;9.33;;;6.10;;
13291;SDS011;6714;53.056;8.690;2023-04-06T00:53:02;7.20;;;6.10;;
13291;SDS011;6714;53.056;8.690;2023-04-06T00:55:44;7.97;;;6.90;;
13291;SDS011;6714;53.056;8.690;2023-04-06T00:58:26;8.97;;;7.47;;
13291;SDS011;6714;53.056;8.690;2023-04-06T01:01:09;9.43;;;7.33;;
13291;SDS011;6714;53.056;8.690;2023-04-06T01:03:51;9.53;;;6.83;;
13291;SDS011;6714;53.056;8.690;2023-04-06T01:06:34;7.03;;;6.23;;
13291;SDS011;6714;53.056;8.690;2023-04-06T01:09:17;8.27;;;6.60;;
13291;SDS011;6714;53.056;8.690;2023-04-06T01:12:00;7.63;;;6.53;;
13291;SDS011;6714;53.056;8.690;2023-04-06T01:14:42;7.40;;;6.10;;
13291;SDS011;6714;53.056;8.690;2023-04-06T01:17:24;7.53;;;6.50;;
13291;SDS011;6714;53.056;8.690;2023-04-06T01:20:08;9.40;;;8.30;;
13291;SDS011;6714;53.056;8.690;2023-04-06T01:22:52;8.10;;;7.17;;
13291;SDS011;6714;53.056;8.690;2023-04-06T01:25:34;9.93;;;7.60;;
13291;SDS011;6714;53.056;8.690;2023-04-06T01:28:16;12.07;;;8.23;;
13291;SDS011;6714;53.056;8.690;2023-04-06T01:30:58;7.90;;;7.10;;
13291;SDS011;6714;53.056;8.690;2023-04-06T01:33:41;9.80;;;7.67;;
13291;SDS011;6714;53.056;8.690;2023-04-06T01:36:23;8.67;;;7.70;;
13291;SDS011;6714;53.056;8.690;2023-04-06T01:39:06;8.17;;;6.27;;
13291;SDS011;6714;53.056;8.690;2023-04-06T01:41:49;8.17;;;6.50;;
13291;SDS011;6714;53.056;8.690;2023-04-06T01:44:31;7.40;;;6.70;;
13291;SDS011;6714;53.056;8.690;2023-04-06T01:47:13;8.17;;;6.30;;
13291;SDS011;6714;53.056;8.690;2023-04-06T01:49:55;9.10;;;6.90;;
13291;SDS011;6714;53.056;8.690;2023-04-06T01:52:37;7.70;;;6.73;;
13291;SDS011;6714;53.056;8.690;2023-04-06T01:55:22;8.47;;;7.00;;
13291;SDS011;6714;53.056;8.690;2023-04-06T01:58:04;10.47;;;7.60;;
13291;SDS011;6714;53.056;8.690;2023-04-06T02:00:46;8.33;;;7.43;;
13291;SDS011;6714;53.056;8.690;2023-04-06T02:03:29;8.00;;;7.20;;
13291;SDS011;6714;53.056;8.690;2023-04-06T02:06:11;9.90;;;8.07;;
13291;SDS011;6714;53.056;8.690;2023-04-06T02:08:53;9.67;;;8.07;;
13291;SDS011;6714;53.056;8.690;2023-04-06T02:11:37;10.50;;;8.37;;
13291;SDS011;6714;53.056;8.690;2023-04-06T02:14:19;10.37;;;8.07;;
13291;SDS011;6714;53.056;8.690;2023-04-06T02:17:01;10.13;;;8.57;;
13291;SDS011;6714;53.056;8.690;2023-04-06T02:19:43;10.03;;;7.77;;
13291;SDS011;6714;53.056;8.690;2023-04-06T02:22:26;10.10;;;7.83;;
13291;SDS011;6714;53.056;8.690;2023-04-06T02:25:08;10.00;;;8.30;;
13291;SDS011;6714;53.056;8.690;2023-04-06T02:27:51;8.97;;;7.73;;
13291;SDS011;6714;53.056;8.690;2023-04-06T02:30:34;8.93;;;7.60;;
13291;SDS011;6714;53.056;8.690;2023-04-06T02:33:16;8.03;;;6.97;;
13291;SDS011;6714;53.056;8.690;2023-04-06T02:35:58;10.90;;;8.43;;
13291;SDS011;6714;53.056;8.690;2023-04-06T02:38:40;9.67;;;7.33;;
13291;SDS011;6714;53.056;8.690;2023-04-06T02:41:23;9.17;;;7.97;;
13291;SDS011;6714;53.056;8.690;2023-04-06T02:44:08;10.43;;;7.63;;
13291;SDS011;6714;53.056;8.690;2023-04-06T02:46:50;10.87;;;7.67;;
13291;SDS011;6714;53.056;8.690;2023-04-06T02:49:32;10.27;;;7.70;;
13291;SDS011;6714;53.056;8.690;2023-04-06T02:52:15;9.30;;;7.90;;
13291;SDS011;6714;53.056;8.690;2023-04-06T02:54:57;8.60;;;7.70;;
13291;SDS011;6714;53.056;8.690;2023-04-06T02:57:40;9.17;;;6.63;;
13291;SDS011;6714;53.056;8.690;2023-04-06T03:00:23;8.13;;;6.93;;
13291;SDS011;6714;53.056;8.690;2023-04-06T03:03:06;8.80;;;7.10;;
13291;SDS011;6714;53.056;8.690;2023-04-06T03:05:48;18.63;;;12.17;;
13291;SDS011;6714;53.056;8.690;2023-04-06T03:08:30;26.13;;;14.77;;
13291;SDS011;6714;53.056;8.690;2023-04-06T03:11:13;18.70;;;12.03;;
13291;SDS011;6714;53.056;8.690;2023-04-06T03:13:55;17.17;;;11.87;;
13291;SDS011;6714;53.056;8.690;2023-04-06T03:16:38;14.70;;;10.03;;
13291;SDS011;6714;53.056;8.690;2023-04-06T03:19:20;14.70;;;10.10;;
13291;SDS011;6714;53.056;8.690;2023-04-06T03:22:03;14.93;;;10.63;;
13291;SDS011;6714;53.056;8.690;2023-04-06T03:24:45;8.90;;;7.17;;
13291;SDS011;6714;53.056;8.690;2023-04-06T03:27:27;12.87;;;10.03;;
13291;SDS011;6714;53.056;8.690;2023-04-06T03:30:10;10.03;;;8.23;;
13291;SDS011;6714;53.056;8.690;2023-04-06T03:32:53;12.97;;;8.70;;
13291;SDS011;6714;53.056;8.690;2023-04-06T03:35:36;10.77;;;8.93;;
13291;SDS011;6714;53.056;8.690;2023-04-06T03:38:18;12.93;;;8.77;;
13291;SDS011;6714;53.056;8.690;2023-04-06T03:41:00;10.33;;;8.30;;
13291;SDS011;6714;53.056;8.690;2023-04-06T03:43:42;11.03;;;7.80;;
13291;SDS011;6714;53.056;8.690;2023-04-06T03:46:25;21.77;;;12.17;;
13291;SDS011;6714;53.056;8.690;2023-04-06T03:49:08;20.13;;;11.50;;
13291;SDS011;6714;53.056;8.690;2023-04-06T03:51:50;15.70;;;10.30;;
13291;SDS011;6714;53.056;8.690;2023-04-06T03:54:32;11.03;;;8.70;;
13291;SDS011;6714;53.056;8.690;2023-04-06T03:57:15;10.87;;;8.60;;
13291;SDS011;6714;53.056;8.690;2023-04-06T03:59:57;11.63;;;9.20;;
13291;SDS011;6714;53.056;8.690;2023-04-06T04:02:39;11.17;;;8.63;;
13291;SDS011;6714;53.056;8.690;2023-04-06T04:05:23;13.57;;;9.40;;
13291;SDS011;6714;53.056;8.690;2023-04-06T04:08:05;12.47;;;8.93;;
13291;SDS011;6714;53.056;8.690;2023-04-06T04:10:47;12.80;;;9.93;;
13291;SDS011;6714;53.056;8.690;2023-04-06T04:13:30;11.93;;;8.53;;
13291;SDS011;6714;53.056;8.690;2023-04-06T04:16:12;11.57;;;9.00;;
13291;SDS011;6714;53.056;8.690;2023-04-06T04:18:54;8.87;;;7.67;;
13291;SDS011;6714;53.056;8.690;2023-04-06T04:21:43;11.27;;;8.80;;
13291;SDS011;6714;53.056;8.690;2023-04-06T04:24:25;10.40;;;8.30;;
13291;SDS011;6714;53.056;8.690;2023-04-06T04:27:07;9.53;;;7.67;;
13291;SDS011;6714;53.056;8.690;2023-04-06T04:29:50;10.57;;;8.27;;
13291;SDS011;6714;53.056;8.690;2023-04-06T04:32:32;10.93;;;8.63;;
13291;SDS011;6714;53.056;8.690;2023-04-06T04:35:14;9.43;;;8.43;;
13291;SDS011;6714;53.056;8.690;2023-04-06T04:37:58;10.93;;;8.50;;
13291;SDS011;6714;53.056;8.690;2023-04-06T04:40:40;11.37;;;9.10;;
13291;SDS011;6714;53.056;8.690;2023-04-06T04:43:22;11.13;;;8.33;;
13291;SDS011;6714;53.056;8.690;2023-04-06T04:46:04;9.60;;;8.30;;
13291;SDS011;6714;53.056;8.690;2023-04-06T04:48:47;9.90;;;8.23;;
13291;SDS011;6714;53.056;8.690;2023-04-06T04:51:29;9.10;;;7.50;;
13291;SDS011;6714;53.056;8.690;2023-04-06T04:54:14;12.03;;;8.93;;
13291;SDS011;6714;53.056;8.690;2023-04-06T04:56:56;10.17;;;8.40;;
13291;SDS011;6714;53.056;8.690;2023-04-06T04:59:38;9.70;;;7.83;;
13291;SDS011;6714;53.056;8.690;2023-04-06T05:02:21;11.30;;;8.87;;
13291;SDS011;6714;53.056;8.690;2023-04-06T05:05:03;11.63;;;8.50;;
13291;SDS011;6714;53.056;8.690;2023-04-06T05:07:45;10.07;;;8.70;;
13291;SDS011;6714;53.056;8.690;2023-04-06T05:10:29;13.50;;;9.43;;
13291;SDS011;6714;53.056;8.690;2023-04-06T05:13:11;13.40;;;9.47;;
13291;SDS011;6714;53.056;8.690;2023-04-06T05:15:53;8.60;;;7.70;;
13291;SDS011;6714;53.056;8.690;2023-04-06T05:18:35;9.70;;;7.50;;
13291;SDS011;6714;53.056;8.690;2023-04-06T05:21:18;11.47;;;9.40;;
13291;SDS011;6714;53.056;8.690;2023-04-06T05:24:01;10.37;;;9.27;;
13291;SDS011;6714;53.056;8.690;2023-04-06T05:26:44;10.87;;;9.13;;
13291;SDS011;6714;53.056;8.690;2023-04-06T05:29:26;11.33;;;9.27;;
13291;SDS011;6714;53.056;8.690;2023-04-06T05:32:09;12.10;;;9.50;;
13291;SDS011;6714;53.056;8.690;2023-04-06T05:34:51;12.77;;;9.20;;
13291;SDS011;6714;53.056;8.690;2023-04-06T05:37:33;12.73;;;9.00;;
13291;SDS011;6714;53.056;8.690;2023-04-06T05:40:15;13.37;;;9.90;;
13291;SDS011;6714;53.056;8.690;2023-04-06T05:42:59;10.40;;;9.03;;
13291;SDS011;6714;53.056;8.690;2023-04-06T05:45:43;10.50;;;8.00;;
13291;SDS011;6714;53.056;8.690;2023-04-06T05:48:26;12.77;;;9.80;;
13291;SDS011;6714;53.056;8.690;2023-04-06T05:51:08;11.10;;;8.63;;
13291;SDS011;6714;53.056;8.690;2023-04-06T05:53:50;9.37;;;8.33;;
13291;SDS011;6714;53.056;8.690;2023-04-06T05:56:32;12.97;;;10.40;;
13291;SDS011;6714;53.056;8.690;2023-04-06T05:59:16;11.10;;;8.90;;
13291;SDS011;6714;53.056;8.690;2023-04-06T06:01:59;12.87;;;10.07;;
13291;SDS011;6714;53.056;8.690;2023-04-06T06:04:41;15.57;;;12.13;;
13291;SDS011;6714;53.056;8.690;2023-04-06T06:07:23;14.27;;;11.13;;
13291;SDS011;6714;53.056;8.690;2023-04-06T06:10:06;14.83;;;12.30;;
13291;SDS011;6714;53.056;8.690;2023-04-06T06:12:49;15.63;;;11.63;;
13291;SDS011;6714;53.056;8.690;2023-04-06T06:15:32;13.30;;;11.50;;
13291;SDS011;6714;53.056;8.690;2023-04-06T06:18:15;12.60;;;10.47;;
13291;SDS011;6714;53.056;8.690;2023-04-06T06:20:57;12.37;;;10.93;;
13291;SDS011;6714;53.056;8.690;2023-04-06T06:23:41;11.37;;;10.00;;
13291;SDS011;6714;53.056;8.690;2023-04-06T06:26:23;13.53;;;11.90;;
13291;SDS011;6714;53.056;8.690;2023-04-06T06:29:06;17.10;;;13.17;;
13291;SDS011;6714;53.056;8.690;2023-04-06T06:31:49;13.43;;;11.33;;
13291;SDS011;6714;53.056;8.690;2023-04-06T06:34:31;13.37;;;11.33;;
13291;SDS011;6714;53.056;8.690;2023-04-06T06:37:14;14.90;;;11.53;;
13291;SDS011;6714;53.056;8.690;2023-04-06T06:39:56;16.50;;;12.13;;
13291;SDS011;6714;53.056;8.690;2023-04-06T06:42:38;16.37;;;11.93;;
13291;SDS011;6714;53.056;8.690;2023-04-06T06:45:20;19.90;;;14.07;;
13291;SDS011;6714;53.056;8.690;2023-04-06T06:48:06;17.57;;;13.90;;
13291;SDS011;6714;53.056;8.690;2023-04-06T06:50:48;17.10;;;13.13;;
13291;SDS011;6714;53.056;8.690;2023-04-06T06:53:31;16.27;;;11.73;;
13291;SDS011;6714;53.056;8.690;2023-04-06T06:56:13;12.13;;;10.20;;
13291;SDS011;6714;53.056;8.690;2023-04-06T06:58:55;14.57;;;11.77;;
13291;SDS011;6714;53.056;8.690;2023-04-06T07:01:37;11.10;;;9.40;;
13291;SDS011;6714;53.056;8.690;2023-04-06T07:04:21;9.47;;;7.70;;
13291;SDS011;6714;53.056;8.690;2023-04-06T07:07:03;11.53;;;9.97;;
13291;SDS011;6714;53.056;8.690;2023-04-06T07:09:45;12.47;;;11.07;;
13291;SDS011;6714;53.056;8.690;2023-04-06T07:12:27;11.57;;;9.30;;
13291;SDS011;6714;53.056;8.690;2023-04-06T07:15:10;15.03;;;10.80;;
13291;SDS011;6714;53.056;8.690;2023-04-06T07:17:52;9.50;;;8.17;;
13291;SDS011;6714;53.056;8.690;2023-04-06T07:20:37;12.17;;;10.87;;
13291;SDS011;6714;53.056;8.690;2023-04-06T07:23:19;12.17;;;9.93;;
13291;SDS011;6714;53.056;8.690;2023-04-06T07:26:01;15.33;;;10.53;;
13291;SDS011;6714;53.056;8.690;2023-04-06T07:28:43;11.63;;;9.33;;
13291;SDS011;6714;53.056;8.690;2023-04-06T07:31:25;14.03;;;11.93;;
13291;SDS011;6714;53.056;8.690;2023-04-06T07:34:08;12.13;;;9.20;;
13291;SDS011;6714;53.056;8.690;2023-04-06T07:36:51;10.13;;;8.80;;
13291;SDS011;6714;53.056;8.690;2023-04-06T07:39:34;9.80;;;8.13;;
13291;SDS011;6714;53.056;8.690;2023-04-06T07:42:16;14.40;;;12.03;;
13291;SDS011;6714;53.056;8.690;2023-04-06T07:44:58;9.57;;;8.17;;
13291;SDS011;6714;53.056;8.690;2023-04-06T07:47:40;10.37;;;8.93;;
13291;SDS011;6714;53.056;8.690;2023-04-06T07:50:23;8.20;;;7.33;;
13291;SDS011;6714;53.056;8.690;2023-04-06T07:53:08;11.37;;;8.73;;
13291;SDS011;6714;53.056;8.690;2023-04-06T07:55:50;12.00;;;10.57;;
13291;SDS011;6714;53.056;8.690;2023-04-06T07:58:32;11.57;;;9.67;;
13291;SDS011;6714;53.056;8.690;2023-04-06T08:01:15;10.07;;;9.07;;
13291;SDS011;6714;53.056;8.690;2023-04-06T08:03:57;8.13;;;7.23;;
13291;SDS011;6714;53.056;8.690;2023-04-06T08:06:42;11.68;;;10.00;;
13291;SDS011;6714;53.056;8.690;2023-04-06T08:09:25;11.07;;;9.73;;
13291;SDS011;6714;53.056;8.690;2023-04-06T08:12:08;9.50;;;8.43;;
13291;SDS011;6714;53.056;8.690;2023-04-06T08:14:50;8.40;;;7.50;;
13291;SDS011;6714;53.056;8.690;2023-04-06T08:17:32;8.63;;;7.83;;
13291;SDS011;6714;53.056;8.690;2023-04-06T08:20:15;11.40;;;9.77;;
13291;SDS011;6714;53.056;8.690;2023-04-06T08:22:57;8.13;;;7.43;;
13291;SDS011;6714;53.056;8.690;2023-04-06T08:25:41;10.50;;;8.77;;
13291;SDS011;6714;53.056;8.690;2023-04-06T08:28:24;9.30;;;8.30;;
13291;SDS011;6714;53.056;8.690;2023-04-06T08:31:06;9.93;;;8.93;;
13291;SDS011;6714;53.056;8.690;2023-04-06T08:33:48;9.67;;;8.67;;
13291;SDS011;6714;53.056;8.690;2023-04-06T08:36:30;10.30;;;9.30;;
13291;SDS011;6714;53.056;8.690;2023-04-06T08:39:13;10.70;;;8.93;;
13291;SDS011;6714;53.056;8.690;2023-04-06T08:41:57;10.07;;;8.47;;
13291;SDS011;6714;53.056;8.690;2023-04-06T08:44:40;10.43;;;9.33;;
13291;SDS011;6714;53.056;8.690;2023-04-06T08:47:22;9.50;;;8.60;;
13291;SDS011;6714;53.056;8.690;2023-04-06T08:50:05;7.13;;;6.53;;
13291;SDS011;6714;53.056;8.690;2023-04-06T08:52:48;8.33;;;7.63;;
13291;SDS011;6714;53.056;8.690;2023-04-06T08:55:30;9.73;;;8.73;;
13291;SDS011;6714;53.056;8.690;2023-04-06T08:58:14;12.20;;;9.57;;
13291;SDS011;6714;53.056;8.690;2023-04-06T09:00:58;10.33;;;8.13;;
13291;SDS011;6714;53.056;8.690;2023-04-06T09:03:41;8.50;;;7.60;;
13291;SDS011;6714;53.056;8.690;2023-04-06T09:06:24;8.83;;;7.37;;
13291;SDS011;6714;53.056;8.690;2023-04-06T09:09:07;8.07;;;7.23;;
13291;SDS011;6714;53.056;8.690;2023-04-06T09:11:50;8.93;;;8.03;;
13291;SDS011;6714;53.056;8.690;2023-04-06T09:14:34;6.50;;;5.90;;
13291;SDS011;6714;53.056;8.690;2023-04-06T09:17:21;8.30;;;7.47;;
13291;SDS011;6714;53.056;8.690;2023-04-06T09:20:03;7.50;;;6.80;;
13291;SDS011;6714;53.056;8.690;2023-04-06T09:22:45;7.30;;;6.57;;
13291;SDS011;6714;53.056;8.690;2023-04-06T09:25:29;8.80;;;7.90;;
13291;SDS011;6714;53.056;8.690;2023-04-06T09:28:12;6.70;;;5.63;;
13291;SDS011;6714;53.056;8.690;2023-04-06T09:30:56;11.30;;;7.97;;
13291;SDS011;6714;53.056;8.690;2023-04-06T09:33:38;7.67;;;6.97;;
13291;SDS011;6714;53.056;8.690;2023-04-06T09:36:28;6.40;;;5.90;;
13291;SDS011;6714;53.056;8.690;2023-04-06T09:39:11;6.43;;;5.83;;
13291;SDS011;6714;53.056;8.690;2023-04-06T09:41:54;8.53;;;6.60;;
13291;SDS011;6714;53.056;8.690;2023-04-06T09:44:37;6.87;;;5.63;;
13291;SDS011;6714;53.056;8.690;2023-04-06T09:47:20;6.57;;;5.87;;
13291;SDS011;6714;53.056;8.690;2023-04-06T09:50:03;7.17;;;6.47;;
13291;SDS011;6714;53.056;8.690;2023-04-06T09:52:46;5.90;;;5.40;;
13291;SDS011;6714;53.056;8.690;2023-04-06T09:55:30;8.80;;;7.87;;
13291;SDS011;6714;53.056;8.690;2023-04-06T09:58:13;5.40;;;4.90;;
13291;SDS011;6714;53.056;8.690;2023-04-06T10:01:04;7.87;;;6.30;;
13291;SDS011;6714;53.056;8.690;2023-04-06T10:03:49;6.30;;;5.70;;
13291;SDS011;6714;53.056;8.690;2023-04-06T10:06:34;7.67;;;6.97;;
13291;SDS011;6714;53.056;8.690;2023-04-06T10:09:17;6.40;;;5.80;;
13291;SDS011;6714;53.056;8.690;2023-04-06T10:11:59;7.17;;;6.47;;
13291;SDS011;6714;53.056;8.690;2023-04-06T10:14:41;6.13;;;5.53;;
13291;SDS011;6714;53.056;8.690;2023-04-06T10:17:24;6.60;;;6.00;;
13291;SDS011;6714;53.056;8.690;2023-04-06T10:20:09;5.23;;;4.83;;
13291;SDS011;6714;53.056;8.690;2023-04-06T10:22:53;5.73;;;5.23;;
13291;SDS011;6714;53.056;8.690;2023-04-06T10:25:37;5.57;;;5.07;;
13291;SDS011;6714;53.056;8.690;2023-04-06T10:28:20;6.80;;;6.20;;
13291;SDS011;6714;53.056;8.690;2023-04-06T10:31:04;7.40;;;6.70;;
13291;SDS011;6714;53.056;8.690;2023-04-06T10:33:53;5.77;;;5.27;;
13291;SDS011;6714;53.056;8.690;2023-04-06T10:36:37;5.23;;;4.77;;
13291;SDS011;6714;53.056;8.690;2023-04-06T10:39:23;5.47;;;4.97;;
13291;SDS011;6714;53.056;8.690;2023-04-06T10:42:07;7.07;;;5.93;;
13291;SDS011;6714;53.056;8.690;2023-04-06T10:44:50;6.67;;;6.07;;
13291;SDS011;6714;53.056;8.690;2023-04-06T10:47:38;6.83;;;6.17;;
13291;SDS011;6714;53.056;8.690;2023-04-06T10:50:20;4.63;;;4.23;;
13291;SDS011;6714;53.056;8.690;2023-04-06T10:53:04;6.23;;;5.63;;
13291;SDS011;6714;53.056;8.690;2023-04-06T10:55:46;7.10;;;6.23;;
13291;SDS011;6714;53.056;8.690;2023-04-06T10:58:29;5.00;;;4.37;;
13291;SDS011;6714;53.056;8.690;2023-04-06T11:01:12;4.77;;;4.37;;
13291;SDS011;6714;53.056;8.690;2023-04-06T11:03:55;6.40;;;5.67;;
13291;SDS011;6714;53.056;8.690;2023-04-06T11:06:39;4.93;;;4.13;;
13291;SDS011;6714;53.056;8.690;2023-04-06T11:09:25;5.93;;;5.00;;
13291;SDS011;6714;53.056;8.690;2023-04-06T11:12:07;6.63;;;6.00;;
13291;SDS011;6714;53.056;8.690;2023-04-06T11:14:53;4.67;;;4.13;;
13291;SDS011;6714;53.056;8.690;2023-04-06T11:17:36;5.13;;;3.93;;
13291;SDS011;6714;53.056;8.690;2023-04-06T11:20:18;5.33;;;4.43;;
13291;SDS011;6714;53.056;8.690;2023-04-06T11:23:01;5.77;;;5.13;;
13291;SDS011;6714;53.056;8.690;2023-04-06T11:25:50;4.90;;;4.50;;
13291;SDS011;6714;53.056;8.690;2023-04-06T11:28:33;4.73;;;4.30;;
13291;SDS011;6714;53.056;8.690;2023-04-06T11:31:15;7.20;;;6.50;;
13291;SDS011;6714;53.056;8.690;2023-04-06T11:33:57;3.97;;;3.67;;
13291;SDS011;6714;53.056;8.690;2023-04-06T11:36:40;4.27;;;3.87;;
13291;SDS011;6714;53.056;8.690;2023-04-06T11:39:23;5.33;;;4.83;;
13291;SDS011;6714;53.056;8.690;2023-04-06T11:42:07;6.17;;;5.60;;
13291;SDS011;6714;53.056;8.690;2023-04-06T11:44:50;4.50;;;4.10;;
13291;SDS011;6714;53.056;8.690;2023-04-06T11:47:33;5.10;;;4.60;;
13291;SDS011;6714;53.056;8.690;2023-04-06T11:50:16;3.80;;;3.50;;
13291;SDS011;6714;53.056;8.690;2023-04-06T11:52:58;5.50;;;4.73;;
13291;SDS011;6714;53.056;8.690;2023-04-06T11:55:41;5.37;;;4.97;;
13291;SDS011;6714;53.056;8.690;2023-04-06T11:58:29;5.30;;;4.90;;
13291;SDS011;6714;53.056;8.690;2023-04-06T12:01:11;5.67;;;5.17;;
13291;SDS011;6714;53.056;8.690;2023-04-06T12:03:53;4.63;;;4.27;;
13291;SDS011;6714;53.056;8.690;2023-04-06T12:06:35;3.17;;;2.97;;
13291;SDS011;6714;53.056;8.690;2023-04-06T12:09:18;5.97;;;4.33;;
13291;SDS011;6714;53.056;8.690;2023-04-06T12:12:00;5.10;;;4.37;;
13291;SDS011;6714;53.056;8.690;2023-04-06T12:14:43;6.13;;;5.63;;
13291;SDS011;6714;53.056;8.690;2023-04-06T12:17:26;3.20;;;3.00;;
13291;SDS011;6714;53.056;8.690;2023-04-06T12:20:08;4.30;;;3.92;;
13291;SDS011;6714;53.056;8.690;2023-04-06T12:22:51;7.10;;;6.45;;
13291;SDS011;6714;53.056;8.690;2023-04-06T12:25:33;2.85;;;2.65;;
13291;SDS011;6714;53.056;8.690;2023-04-06T12:28:15;4.10;;;3.35;;
13291;SDS011;6714;53.056;8.690;2023-04-06T12:30:59;3.80;;;3.45;;
13291;SDS011;6714;53.056;8.690;2023-04-06T12:33:42;3.75;;;3.35;;
13291;SDS011;6714;53.056;8.690;2023-04-06T12:36:25;2.53;;;2.33;;
13291;SDS011;6714;53.056;8.690;2023-04-06T12:39:07;3.75;;;3.50;;
13291;SDS011;6714;53.056;8.690;2023-04-06T12:41:49;2.85;;;2.65;;
13291;SDS011;6714;53.056;8.690;2023-04-06T12:44:32;3.53;;;3.22;;
13291;SDS011;6714;53.056;8.690;2023-04-06T12:47:15;3.05;;;2.85;;
13291;SDS011;6714;53.056;8.690;2023-04-06T12:49:58;3.08;;;2.88;;
13291;SDS011;6714;53.056;8.690;2023-04-06T12:52:40;4.38;;;4.07;;
13291;SDS011;6714;53.056;8.690;2023-04-06T12:55:22;5.40;;;4.97;;
13291;SDS011;6714;53.056;8.690;2023-04-06T12:58:05;4.05;;;3.80;;
13291;SDS011;6714;53.056;8.690;2023-04-06T13:00:47;3.67;;;3.47;;
13291;SDS011;6714;53.056;8.690;2023-04-06T13:03:31;3.47;;;3.17;;
13291;SDS011;6714;53.056;8.690;2023-04-06T13:06:14;3.97;;;3.58;;
13291;SDS011;6714;53.056;8.690;2023-04-06T13:08:56;4.85;;;4.45;;
13291;SDS011;6714;53.056;8.690;2023-04-06T13:11:38;2.22;;;2.13;;
13291;SDS011;6714;53.056;8.690;2023-04-06T13:14:21;4.35;;;3.95;;
13291;SDS011;6714;53.056;8.690;2023-04-06T13:17:03;3.40;;;3.10;;
13291;SDS011;6714;53.056;8.690;2023-04-06T13:19:48;3.50;;;3.25;;
13291;SDS011;6714;53.056;8.690;2023-04-06T13:22:30;3.55;;;3.30;;
13291;SDS011;6714;53.056;8.690;2023-04-06T13:25:12;2.60;;;2.40;;
13291;SDS011;6714;53.056;8.690;2023-04-06T13:27:55;2.50;;;2.30;;
13291;SDS011;6714;53.056;8.690;2023-04-06T13:30:37;2.60;;;2.38;;
13291;SDS011;6714;53.056;8.690;2023-04-06T13:33:19;5.20;;;4.78;;
13291;SDS011;6714;53.056;8.690;2023-04-06T13:36:03;4.10;;;3.80;;
13291;SDS011;6714;53.056;8.690;2023-04-06T13:38:45;6.47;;;5.82;;
13291;SDS011;6714;53.056;8.690;2023-04-06T13:41:27;3.67;;;3.40;;
13291;SDS011;6714;53.056;8.690;2023-04-06T13:44:10;4.20;;;3.83;;
13291;SDS011;6714;53.056;8.690;2023-04-06T13:46:52;3.05;;;2.60;;
13291;SDS011;6714;53.056;8.690;2023-04-06T13:49:34;2.97;;;2.78;;
13291;SDS011;6714;53.056;8.690;2023-04-06T13:52:18;4.68;;;4.30;;
13291;SDS011;6714;53.056;8.690;2023-04-06T13:55:01;4.20;;;3.83;;
13291;SDS011;6714;53.056;8.690;2023-04-06T13:57:43;4.10;;;3.70;;
13291;SDS011;6714;53.056;8.690;2023-04-06T14:00:26;3.22;;;3.03;;
13291;SDS011;6714;53.056;8.690;2023-04-06T14:03:08;4.00;;;3.72;;
13291;SDS011;6714;53.056;8.690;2023-04-06T14:05:51;3.65;;;3.35;;
13291;SDS011;6714;53.056;8.690;2023-04-06T14:08:35;4.70;;;4.30;;
13291;SDS011;6714;53.056;8.690;2023-04-06T14:11:17;5.90;;;5.40;;
13291;SDS011;6714;53.056;8.690;2023-04-06T14:13:59;3.63;;;3.35;;
13291;SDS011;6714;53.056;8.690;2023-04-06T14:16:42;3.40;;;3.20;;
13291;SDS011;6714;53.056;8.690;2023-04-06T14:19:26;7.32;;;6.70;;
13291;SDS011;6714;53.056;8.690;2023-04-06T14:22:08;7.00;;;6.40;;
13291;SDS011;6714;53.056;8.690;2023-04-06T14:24:52;6.47;;;5.85;;
13291;SDS011;6714;53.056;8.690;2023-04-06T14:27:37;5.88;;;5.38;;
13291;SDS011;6714;53.056;8.690;2023-04-06T14:30:20;5.43;;;5.03;;
13291;SDS011;6714;53.056;8.690;2023-04-06T14:33:02;8.02;;;7.32;;
13291;SDS011;6714;53.056;8.690;2023-04-06T14:35:44;6.50;;;5.90;;
13291;SDS011;6714;53.056;8.690;2023-04-06T14:38:27;5.68;;;5.18;;
13291;SDS011;6714;53.056;8.690;2023-04-06T14:41:15;8.18;;;7.38;;
13291;SDS011;6714;53.056;8.690;2023-04-06T14:44:00;4.95;;;4.53;;
13291;SDS011;6714;53.056;8.690;2023-04-06T14:46:42;7.82;;;7.18;;
13291;SDS011;6714;53.056;8.690;2023-04-06T14:49:25;9.50;;;8.60;;
13291;SDS011;6714;53.056;8.690;2023-04-06T14:52:07;7.22;;;6.50;;
13291;SDS011;6714;53.056;8.690;2023-04-06T14:54:50;8.73;;;7.90;;
13291;SDS011;6714;53.056;8.690;2023-04-06T14:57:35;7.93;;;7.13;;
13291;SDS011;6714;53.056;8.690;2023-04-06T15:00:17;5.93;;;5.30;;
13291;SDS011;6714;53.056;8.690;2023-04-06T15:03:02;7.03;;;6.43;;
13291;SDS011;6714;53.056;8.690;2023-04-06T15:05:44;5.93;;;5.35;;
13291;SDS011;6714;53.056;8.690;2023-04-06T15:08:26;6.80;;;6.20;;
13291;SDS011;6714;53.056;8.690;2023-04-06T15:11:09;3.97;;;3.67;;
13291;SDS011;6714;53.056;8.690;2023-04-06T15:13:53;7.43;;;6.73;;
13291;SDS011;6714;53.056;8.690;2023-04-06T15:16:35;8.13;;;7.33;;
13291;SDS011;6714;53.056;8.690;2023-04-06T15:19:18;10.33;;;9.33;;
13291;SDS011;6714;53.056;8.690;2023-04-06T15:22:00;9.53;;;8.63;;
13291;SDS011;6714;53.056;8.690;2023-04-06T15:24:43;8.13;;;7.33;;
13291;SDS011;6714;53.056;8.690;2023-04-06T15:27:26;7.90;;;7.07;;
13291;SDS011;6714;53.056;8.690;2023-04-06T15:30:12;6.80;;;6.20;;
13291;SDS011;6714;53.056;8.690;2023-04-06T15:32:55;8.97;;;8.03;;
13291;SDS011;6714;53.056;8.690;2023-04-06T15:35:37;6.70;;;5.90;;
13291;SDS011;6714;53.056;8.690;2023-04-06T15:38:22;7.70;;;7.07;;
13291;SDS011;6714;53.056;8.690;2023-04-06T15:41:04;8.37;;;7.30;;
13291;SDS011;6714;53.056;8.690;2023-04-06T15:43:47;7.00;;;6.20;;
13291;SDS011;6714;53.056;8.690;2023-04-06T15:46:31;6.17;;;5.63;;
13291;SDS011;6714;53.056;8.690;2023-04-06T15:49:14;6.30;;;5.70;;
13291;SDS011;6714;53.056;8.690;2023-04-06T15:51:56;5.77;;;5.23;;
13291;SDS011;6714;53.056;8.690;2023-04-06T15:54:38;6.27;;;5.73;;
13291;SDS011;6714;53.056;8.690;2023-04-06T15:57:21;9.60;;;7.97;;
13291;SDS011;6714;53.056;8.690;2023-04-06T16:00:03;6.77;;;6.13;;
13291;SDS011;6714;53.056;8.690;2023-04-06T16:02:48;8.13;;;7.30;;
13291;SDS011;6714;53.056;8.690;2023-04-06T16:05:30;7.83;;;6.33;;
13291;SDS011;6714;53.056;8.690;2023-04-06T16:08:13;7.37;;;6.63;;
13291;SDS011;6714;53.056;8.690;2023-04-06T16:10:55;7.03;;;5.80;;
13291;SDS011;6714;53.056;8.690;2023-04-06T16:13:38;9.23;;;7.43;;
13291;SDS011;6714;53.056;8.690;2023-04-06T16:16:21;7.67;;;6.87;;
13291;SDS011;6714;53.056;8.690;2023-04-06T16:19:05;9.50;;;7.97;;
13291;SDS011;6714;53.056;8.690;2023-04-06T16:21:47;8.23;;;7.43;;
13291;SDS011;6714;53.056;8.690;2023-04-06T16:24:30;7.93;;;7.23;;
13291;SDS011;6714;53.056;8.690;2023-04-06T16:27:13;8.10;;;7.30;;
13291;SDS011;6714;53.056;8.690;2023-04-06T16:29:58;7.30;;;6.70;;